createdAt,value
2018-12-13T00:01:06.610Z,2.50
2018-12-13T00:03:37.633Z,2.60
2018-12-13T00:06:08.653Z,2.60
2018-12-13T00:08:37.715Z,2.60
2018-12-13T00:11:06.922Z,2.50
2018-12-13T00:13:36.007Z,2.50
2018-12-13T00:16:05.016Z,2.50
2018-12-13T00:18:34.176Z,2.70
2018-12-13T00:21:03.373Z,2.50
2018-12-13T00:23:32.405Z,2.40
2018-12-13T00:26:01.395Z,2.50
2018-12-13T00:28:30.439Z,2.70
2018-12-13T00:30:59.474Z,2.40
2018-12-13T00:33:28.531Z,2.50
2018-12-13T00:35:57.576Z,2.60
2018-12-13T00:38:26.672Z,2.70
2018-12-13T00:40:55.706Z,2.70
2018-12-13T00:43:24.761Z,2.90
2018-12-13T00:45:53.881Z,2.80
2018-12-13T00:48:22.959Z,2.80
2018-12-13T00:50:52.292Z,2.80
2018-12-13T00:53:21.345Z,2.80
2018-12-13T00:55:50.444Z,2.70
2018-12-13T00:58:19.444Z,2.70
2018-12-13T01:00:48.480Z,2.80
2018-12-13T01:03:17.668Z,3.00
2018-12-13T01:05:46.702Z,2.70
2018-12-13T01:08:15.750Z,2.90
2018-12-13T01:10:44.778Z,2.90
2018-12-13T01:13:13.958Z,3.00
2018-12-13T01:15:42.991Z,2.90
2018-12-13T01:18:12.176Z,3.10
2018-12-13T01:20:42.512Z,2.90
2018-12-13T01:23:11.597Z,3.10
2018-12-13T01:25:40.670Z,3.20
2018-12-13T01:28:09.685Z,3.10
2018-12-13T01:30:38.704Z,3.10
2018-12-13T01:33:07.956Z,3.00
2018-12-13T01:35:37.232Z,3.20
2018-12-13T01:38:06.315Z,3.10
2018-12-13T01:40:35.513Z,3.10
2018-12-13T01:43:04.573Z,2.60
2018-12-13T01:45:34.162Z,2.70
2018-12-13T01:48:03.238Z,2.60
2018-12-13T01:50:32.474Z,2.50
2018-12-13T01:53:01.501Z,2.50
2018-12-13T01:55:30.572Z,2.60
2018-12-13T01:57:59.590Z,2.50
2018-12-13T02:00:28.738Z,2.40
2018-12-13T02:02:57.844Z,2.30
2018-12-13T02:05:27.032Z,2.40
2018-12-13T02:07:56.066Z,2.40
2018-12-13T02:10:25.116Z,2.30
2018-12-13T02:12:54.246Z,2.20
2018-12-13T02:15:23.291Z,2.30
2018-12-13T02:17:52.950Z,2.40
2018-12-13T02:20:21.985Z,2.30
2018-12-13T02:22:51.039Z,2.50
2018-12-13T02:25:20.122Z,2.60
2018-12-13T02:27:49.336Z,2.50
2018-12-13T02:30:20.435Z,2.30
2018-12-13T02:32:50.545Z,2.30
2018-12-13T02:35:19.591Z,2.30
2018-12-13T02:37:48.678Z,2.40
2018-12-13T02:40:17.866Z,2.30
2018-12-13T02:42:46.908Z,2.30
2018-12-13T02:45:15.927Z,2.40
2018-12-13T02:47:45.452Z,2.30
2018-12-13T02:50:15.684Z,2.50
2018-12-13T02:52:44.730Z,2.50
2018-12-13T02:55:13.772Z,2.50
2018-12-13T02:57:42.823Z,2.70
2018-12-13T03:00:12.026Z,2.60
2018-12-13T03:02:43.115Z,2.40
2018-12-13T03:05:12.392Z,2.20
2018-12-13T03:07:41.549Z,2.40
2018-12-13T03:10:12.154Z,2.50
2018-12-13T03:12:41.481Z,2.40
2018-12-13T03:15:10.533Z,2.40
2018-12-13T03:17:39.593Z,2.20
2018-12-13T03:20:09.075Z,2.20
2018-12-13T03:22:38.248Z,2.10
2018-12-13T03:25:07.730Z,2.20
2018-12-13T03:27:37.080Z,2.30
2018-12-13T03:30:06.698Z,2.30
2018-12-13T03:32:36.014Z,2.10
2018-12-13T03:35:05.519Z,2.20
2018-12-13T03:37:36.530Z,2.20
2018-12-13T03:40:06.406Z,2.20
2018-12-13T03:42:35.562Z,2.20
2018-12-13T03:45:05.269Z,2.30
2018-12-13T03:47:34.331Z,2.20
2018-12-13T03:50:03.778Z,2.10
2018-12-13T03:52:33.265Z,2.20
2018-12-13T03:55:02.325Z,2.30
2018-12-13T03:57:31.450Z,2.30
2018-12-13T04:00:00.471Z,2.40
2018-12-13T04:02:30.254Z,2.40
2018-12-13T04:04:59.580Z,2.50
2018-12-13T04:07:28.589Z,2.60
2018-12-13T04:09:57.713Z,2.30
2018-12-13T04:12:26.861Z,2.10
2018-12-13T04:14:56.203Z,2.40
2018-12-13T04:17:25.522Z,2.20
2018-12-13T04:19:56.662Z,2.30
2018-12-13T04:22:25.704Z,2.30
2018-12-13T04:24:54.734Z,2.20
2018-12-13T04:27:23.897Z,2.00
2018-12-13T04:29:52.969Z,2.10
2018-12-13T04:32:22.009Z,1.90
2018-12-13T04:34:51.025Z,2.10
2018-12-13T04:37:20.132Z,2.00
2018-12-13T04:39:49.161Z,1.90
2018-12-13T04:42:18.191Z,1.80
2018-12-13T04:44:47.480Z,1.80
2018-12-13T04:47:16.545Z,2.10
2018-12-13T04:49:46.036Z,2.00
2018-12-13T04:52:15.384Z,2.00
2018-12-13T04:54:44.444Z,2.00
2018-12-13T04:57:13.638Z,2.00
2018-12-13T04:59:42.688Z,2.00
2018-12-13T05:02:11.722Z,1.80
2018-12-13T05:04:40.776Z,1.80
2018-12-13T05:07:09.778Z,1.80
2018-12-13T05:09:38.863Z,2.10
2018-12-13T05:12:07.964Z,2.10
2018-12-13T05:14:36.993Z,2.10
2018-12-13T05:17:06.224Z,2.10
2018-12-13T05:19:35.846Z,2.10
2018-12-13T05:22:04.991Z,2.00
2018-12-13T05:24:34.036Z,2.10
2018-12-13T05:27:03.125Z,2.10
2018-12-13T05:29:32.148Z,2.20
2018-12-13T05:32:01.436Z,2.30
2018-12-13T05:34:30.446Z,2.20
2018-12-13T05:36:59.796Z,2.20
2018-12-13T05:39:28.858Z,2.20
2018-12-13T05:41:58.026Z,2.00
2018-12-13T05:44:27.012Z,2.00
2018-12-13T05:46:56.016Z,2.00
2018-12-13T05:49:25.070Z,2.10
2018-12-13T05:51:54.103Z,2.00
2018-12-13T05:54:23.133Z,2.00
2018-12-13T05:56:52.163Z,2.00
2018-12-13T05:59:21.238Z,1.80
2018-12-13T06:01:51.226Z,1.60
2018-12-13T06:04:20.456Z,1.70
2018-12-13T06:06:49.788Z,1.50
2018-12-13T06:09:19.174Z,1.50
2018-12-13T06:11:48.221Z,1.70
2018-12-13T06:14:17.408Z,1.50
2018-12-13T06:16:46.460Z,1.50
2018-12-13T06:19:15.524Z,1.40
2018-12-13T06:21:44.586Z,1.70
2018-12-13T06:24:13.779Z,1.60
2018-12-13T06:26:42.770Z,1.60
2018-12-13T06:29:11.802Z,1.70
2018-12-13T06:31:41.148Z,1.70
2018-12-13T06:34:10.263Z,1.80
2018-12-13T06:36:39.330Z,1.90
2018-12-13T06:39:08.826Z,1.90
2018-12-13T06:41:38.545Z,1.80
2018-12-13T06:44:07.550Z,1.90
2018-12-13T06:46:36.591Z,1.90
2018-12-13T06:49:05.774Z,2.00
2018-12-13T06:51:34.854Z,1.90
2018-12-13T06:54:03.862Z,1.90
2018-12-13T06:56:32.918Z,1.80
2018-12-13T06:59:01.940Z,2.00
2018-12-13T07:01:30.999Z,1.80
2018-12-13T07:04:00.109Z,1.80
2018-12-13T07:06:29.203Z,1.70
2018-12-13T07:08:58.230Z,2.00
2018-12-13T07:11:27.283Z,2.00
2018-12-13T07:13:56.586Z,1.90
2018-12-13T07:16:25.600Z,1.90
2018-12-13T07:18:54.623Z,2.00
2018-12-13T07:21:23.896Z,2.00
2018-12-13T07:23:53.306Z,1.90
2018-12-13T07:26:22.309Z,2.00
2018-12-13T07:28:51.312Z,2.00
2018-12-13T07:31:20.380Z,2.00
2018-12-13T07:33:49.534Z,2.00
2018-12-13T07:36:18.686Z,2.00
2018-12-13T07:38:47.793Z,1.70
2018-12-13T07:41:17.361Z,1.50
2018-12-13T07:43:46.447Z,1.60
2018-12-13T07:46:15.603Z,1.60
2018-12-13T07:48:44.632Z,1.70
2018-12-13T07:51:13.690Z,1.60
2018-12-13T07:53:42.693Z,1.80
2018-12-13T07:56:11.951Z,1.90
2018-12-13T07:58:41.197Z,1.80
2018-12-13T08:01:10.469Z,1.60
2018-12-13T08:03:40.465Z,1.80
2018-12-13T08:06:09.486Z,1.60
2018-12-13T08:08:38.507Z,1.80
2018-12-13T08:11:07.527Z,1.90
2018-12-13T08:13:36.605Z,2.00
2018-12-13T08:16:05.669Z,1.80
2018-12-13T08:18:36.685Z,1.70
2018-12-13T08:21:07.869Z,1.80
2018-12-13T08:23:36.905Z,1.90
2018-12-13T08:26:05.933Z,1.90
2018-12-13T08:28:34.996Z,1.90
2018-12-13T08:31:04.315Z,1.90
2018-12-13T08:33:33.390Z,1.80
2018-12-13T08:36:02.622Z,1.70
2018-12-13T08:38:31.737Z,1.70
2018-12-13T08:41:00.777Z,1.90
2018-12-13T08:43:29.850Z,1.90
2018-12-13T08:45:58.889Z,1.80
2018-12-13T08:48:28.184Z,1.90
2018-12-13T08:50:57.758Z,2.10
2018-12-13T08:53:26.829Z,2.00
2018-12-13T08:55:55.895Z,1.90
2018-12-13T08:58:25.285Z,2.00
2018-12-13T09:00:54.329Z,1.90
2018-12-13T09:03:23.392Z,1.90
2018-12-13T09:05:52.518Z,2.10
2018-12-13T09:08:21.670Z,2.10
2018-12-13T09:10:50.970Z,1.80
2018-12-13T09:13:20.023Z,2.10
2018-12-13T09:15:49.058Z,1.90
2018-12-13T09:18:18.257Z,1.90
2018-12-13T09:20:47.325Z,2.00
2018-12-13T09:23:16.560Z,2.10
2018-12-13T09:25:46.791Z,2.20
2018-12-13T09:28:16.063Z,2.10
2018-12-13T09:30:45.165Z,2.20
2018-12-13T09:33:14.248Z,2.00
2018-12-13T09:35:43.284Z,1.90
2018-12-13T09:38:12.664Z,1.80
2018-12-13T09:40:41.723Z,1.60
2018-12-13T09:43:10.828Z,1.70
2018-12-13T09:45:39.943Z,1.90
2018-12-13T09:48:09.027Z,1.90
2018-12-13T09:50:38.065Z,2.10
2018-12-13T09:53:07.262Z,2.10
2018-12-13T09:55:36.275Z,2.10
2018-12-13T09:58:05.502Z,2.20
2018-12-13T10:00:34.627Z,2.20
2018-12-13T10:03:03.853Z,1.90
2018-12-13T10:05:32.919Z,1.70
2018-12-13T10:08:01.946Z,1.60
2018-12-13T10:10:31.114Z,1.60
2018-12-13T10:13:00.320Z,1.90
2018-12-13T10:15:32.201Z,2.10
2018-12-13T10:18:00.981Z,2.10
2018-12-13T10:20:30.106Z,2.00
2018-12-13T10:22:59.195Z,1.90
2018-12-13T10:25:28.371Z,1.80
2018-12-13T10:27:57.870Z,1.90
2018-12-13T10:30:27.055Z,2.00
2018-12-13T10:32:56.346Z,2.10
2018-12-13T10:35:25.642Z,1.70
2018-12-13T10:37:54.904Z,1.70
2018-12-13T10:40:23.962Z,1.90
2018-12-13T10:42:52.980Z,2.10
2018-12-13T10:45:22.033Z,2.10
2018-12-13T10:47:51.050Z,2.20
2018-12-13T10:50:20.074Z,2.00
2018-12-13T10:52:49.130Z,2.00
2018-12-13T10:55:18.181Z,1.90
2018-12-13T10:57:47.923Z,1.90
2018-12-13T11:00:22.220Z,1.80
2018-12-13T11:03:06.894Z,1.90
2018-12-13T11:05:35.899Z,1.80
2018-12-13T11:08:04.954Z,1.80
2018-12-13T11:10:34.970Z,2.10
2018-12-13T11:13:03.998Z,1.90
2018-12-13T11:15:33.073Z,1.70
2018-12-13T11:18:02.130Z,1.90
2018-12-13T11:20:31.181Z,2.10
2018-12-13T11:23:00.371Z,2.00
2018-12-13T11:25:29.655Z,1.80
2018-12-13T11:30:26.741Z,2.00
2018-12-13T11:32:55.895Z,2.30
2018-12-13T11:35:25.217Z,2.20
2018-12-13T11:37:54.341Z,2.20
2018-12-13T11:40:23.429Z,2.30
2018-12-13T11:42:52.455Z,2.30
2018-12-13T11:45:21.540Z,2.10
2018-12-13T11:47:50.699Z,2.10
2018-12-13T11:50:19.752Z,2.10
2018-12-13T11:52:49.015Z,2.20
2018-12-13T11:55:38.241Z,2.10
2018-12-13T11:58:11.815Z,2.20
2018-12-13T12:00:41.075Z,2.20
2018-12-13T12:03:10.227Z,2.20
2018-12-13T12:05:39.472Z,2.20
2018-12-13T12:08:08.558Z,2.00
2018-12-13T12:10:37.581Z,1.70
2018-12-13T12:13:06.761Z,1.80
2018-12-13T12:15:35.851Z,2.10
2018-12-13T12:18:05.020Z,1.90
2018-12-13T12:20:34.113Z,2.10
2018-12-13T12:23:05.157Z,2.20
2018-12-13T12:25:34.203Z,2.00
2018-12-13T12:28:03.239Z,2.00
2018-12-13T12:30:32.475Z,2.20
2018-12-13T12:33:01.781Z,2.20
2018-12-13T12:35:31.729Z,2.10
2018-12-13T12:38:00.852Z,2.20
2018-12-13T12:40:30.235Z,2.10
2018-12-13T12:42:59.286Z,1.90
2018-12-13T12:45:28.642Z,2.00
2018-12-13T12:47:57.810Z,1.90
2018-12-13T12:50:26.865Z,1.70
2018-12-13T12:52:55.909Z,1.70
2018-12-13T12:55:24.967Z,1.60
2018-12-13T12:57:54.345Z,1.80
2018-12-13T13:00:23.367Z,2.10
2018-12-13T13:02:53.080Z,1.90
2018-12-13T13:05:22.097Z,1.80
2018-12-13T13:07:51.360Z,1.90
2018-12-13T13:10:20.361Z,2.00
2018-12-13T13:12:49.685Z,2.00
2018-12-13T13:15:18.703Z,1.70
2018-12-13T13:17:47.845Z,1.80
2018-12-13T13:20:16.900Z,1.90
2018-12-13T13:22:46.054Z,2.10
2018-12-13T13:25:15.248Z,2.10
2018-12-13T13:27:44.309Z,2.10
2018-12-13T13:30:13.301Z,2.00
2018-12-13T13:32:42.478Z,2.00
2018-12-13T13:35:13.381Z,1.80
2018-12-13T13:37:44.131Z,1.70
2018-12-13T13:40:13.326Z,1.70
2018-12-13T13:42:42.436Z,1.70
2018-12-13T13:45:11.899Z,1.70
2018-12-13T13:47:42.933Z,1.70
2018-12-13T13:50:12.503Z,1.50
2018-12-13T13:52:41.881Z,1.60
2018-12-13T13:55:10.890Z,1.50
2018-12-13T13:57:40.075Z,1.40
2018-12-13T14:00:10.381Z,1.30
2018-12-13T14:02:40.080Z,1.20
2018-12-13T14:05:09.612Z,1.20
2018-12-13T14:07:38.948Z,1.50
2018-12-13T14:10:08.341Z,1.60
2018-12-13T14:12:37.385Z,1.40
2018-12-13T14:15:07.495Z,1.60
2018-12-13T14:17:36.653Z,1.90
2018-12-13T14:20:06.088Z,2.10
2018-12-13T14:22:35.381Z,2.00
2018-12-13T14:25:05.023Z,2.20
2018-12-13T14:27:34.802Z,2.10
2018-12-13T14:30:04.989Z,2.20
2018-12-13T14:32:34.061Z,2.10
2018-12-13T14:35:03.421Z,2.00
2018-12-13T14:37:32.621Z,2.10
2018-12-13T14:40:01.711Z,2.00
2018-12-13T14:42:32.780Z,1.90
2018-12-13T14:45:02.129Z,2.10
2018-12-13T14:47:31.527Z,2.00
2018-12-13T14:50:00.551Z,2.00
2018-12-13T14:52:29.617Z,2.10
2018-12-13T14:54:58.765Z,2.10
2018-12-13T14:57:27.967Z,2.00
2018-12-13T14:59:56.986Z,1.80
2018-12-13T15:02:26.031Z,1.80
2018-12-13T15:04:55.557Z,1.40
2018-12-13T15:07:24.591Z,1.50
2018-12-13T15:09:53.717Z,1.60
2018-12-13T15:12:22.771Z,1.80
2018-12-13T15:14:52.222Z,2.00
2018-12-13T15:17:21.522Z,2.00
2018-12-13T15:19:50.761Z,2.00
2018-12-13T15:22:20.040Z,2.20
2018-12-13T15:24:49.161Z,2.10
2018-12-13T15:27:18.201Z,1.90
2018-12-13T15:29:47.372Z,2.20
2018-12-13T15:32:16.429Z,2.30
2018-12-13T15:34:45.463Z,2.10
2018-12-13T15:37:14.722Z,2.20
2018-12-13T15:39:43.929Z,2.50
2018-12-13T15:42:13.068Z,2.20
2018-12-13T15:44:44.139Z,2.00
2018-12-13T15:47:13.173Z,2.30
2018-12-13T15:49:42.967Z,2.00
2018-12-13T15:52:12.028Z,1.90
2018-12-13T15:54:41.053Z,2.00
2018-12-13T15:57:10.083Z,2.10
2018-12-13T15:59:39.471Z,2.10
2018-12-13T16:02:09.084Z,1.80
2018-12-13T16:04:38.506Z,1.80
2018-12-13T16:07:07.599Z,1.40
2018-12-13T16:09:37.068Z,1.40
2018-12-13T16:12:06.059Z,1.50
2018-12-13T16:14:35.113Z,1.70
2018-12-13T16:17:05.980Z,1.80
2018-12-13T16:19:35.074Z,2.10
2018-12-13T16:22:04.947Z,2.20
2018-12-13T16:24:35.088Z,2.20
2018-12-13T16:27:04.612Z,2.30
2018-12-13T16:29:33.874Z,2.40
2018-12-13T16:32:03.575Z,3.00
2018-12-13T16:34:32.594Z,2.70
2018-12-13T16:37:01.684Z,2.80
2018-12-13T16:39:30.834Z,2.90
2018-12-13T16:41:59.980Z,2.90
2018-12-13T16:44:28.979Z,2.70
2018-12-13T16:46:58.114Z,2.40
2018-12-13T16:49:27.358Z,2.40
2018-12-13T16:51:56.448Z,2.20
2018-12-13T16:54:25.552Z,2.00
2018-12-13T16:56:54.727Z,2.10
2018-12-13T16:59:23.842Z,2.20
2018-12-13T17:01:52.876Z,2.30
2018-12-13T17:04:21.965Z,2.30
2018-12-13T17:06:51.110Z,2.40
2018-12-13T17:09:20.132Z,2.40
2018-12-13T17:11:49.190Z,2.20
2018-12-13T17:14:18.187Z,2.10
2018-12-13T17:16:47.262Z,1.60
2018-12-13T17:19:16.802Z,1.80
2018-12-13T17:21:45.880Z,1.80
2018-12-13T17:24:15.214Z,2.00
2018-12-13T17:26:44.776Z,2.00
2018-12-13T17:29:14.311Z,1.80
2018-12-13T17:31:43.431Z,1.60
2018-12-13T17:34:12.754Z,1.60
2018-12-13T17:36:41.895Z,1.60
2018-12-13T17:39:10.969Z,1.80
2018-12-13T17:41:46.334Z,1.70
2018-12-13T17:44:15.396Z,1.50
2018-12-13T17:46:44.444Z,1.80
2018-12-13T17:49:13.564Z,1.70
2018-12-13T17:51:43.167Z,1.70
2018-12-13T17:54:12.260Z,2.00
2018-12-13T17:56:41.964Z,1.90
2018-12-13T17:59:11.029Z,2.00
2018-12-13T18:01:40.095Z,2.20
2018-12-13T18:04:09.200Z,2.10
2018-12-13T18:06:38.302Z,1.90
2018-12-13T18:09:08.485Z,1.90
2018-12-13T18:11:37.690Z,1.70
2018-12-13T18:14:06.713Z,1.70
2018-12-13T18:16:36.402Z,1.80
2018-12-13T18:19:08.124Z,1.80
2018-12-13T18:21:43.067Z,1.90
2018-12-13T18:24:15.976Z,1.90
2018-12-13T18:26:49.789Z,1.70
2018-12-13T18:29:25.941Z,1.70
2018-12-13T18:32:01.626Z,1.70
2018-12-13T18:34:33.509Z,1.70
2018-12-13T18:37:06.597Z,1.60
2018-12-13T18:39:41.423Z,1.60
2018-12-13T18:42:11.923Z,1.60
2018-12-13T18:44:44.121Z,1.80
2018-12-13T18:47:15.223Z,1.90
2018-12-13T18:49:46.134Z,1.50
2018-12-13T18:52:17.459Z,1.20
2018-12-13T18:54:46.563Z,1.10
2018-12-13T18:57:15.625Z,1.20
2018-12-13T18:59:44.723Z,1.70
2018-12-13T19:02:14.737Z,1.40
2018-12-13T19:04:43.818Z,1.30
2018-12-13T19:07:13.199Z,1.20
2018-12-13T19:09:42.303Z,0.90
2018-12-13T19:12:11.429Z,1.00
2018-12-13T19:14:40.689Z,1.30
2018-12-13T19:17:09.824Z,1.50
2018-12-13T19:19:38.937Z,1.70
2018-12-13T19:22:08.181Z,1.60
2018-12-13T19:24:38.504Z,1.70
2018-12-13T19:27:14.168Z,1.70
2018-12-13T19:29:43.402Z,1.70
2018-12-13T19:32:12.505Z,1.50
2018-12-13T19:34:41.574Z,1.30
2018-12-13T19:37:10.635Z,1.10
2018-12-13T19:39:39.972Z,1.10
2018-12-13T19:42:09.060Z,1.10
2018-12-13T19:44:39.414Z,1.30
2018-12-13T19:47:08.494Z,1.40
2018-12-13T19:49:37.652Z,1.30
2018-12-13T19:52:06.674Z,1.40
2018-12-13T19:54:35.764Z,1.40
2018-12-13T19:57:04.791Z,1.60
2018-12-13T19:59:34.177Z,1.70
2018-12-13T20:02:03.304Z,1.80
2018-12-13T20:04:33.443Z,1.80
2018-12-13T20:07:02.946Z,1.70
2018-12-13T20:09:32.260Z,1.60
2018-12-13T20:12:01.362Z,1.60
2018-12-13T20:14:30.886Z,1.40
2018-12-13T20:16:59.916Z,1.10
2018-12-13T20:19:29.023Z,1.30
2018-12-13T20:21:58.148Z,1.30
2018-12-13T20:24:27.219Z,1.20
2018-12-13T20:26:56.298Z,1.20
2018-12-13T20:29:25.785Z,1.10
2018-12-13T20:31:54.954Z,1.50
2018-12-13T20:34:24.066Z,1.80
2018-12-13T20:36:53.311Z,1.70
2018-12-13T20:39:22.374Z,1.50
2018-12-13T20:41:51.644Z,1.50
2018-12-13T20:44:20.942Z,1.50
2018-12-13T20:46:50.589Z,1.50
2018-12-13T20:49:19.856Z,1.60
2018-12-13T20:51:48.947Z,1.50
2018-12-13T20:54:19.485Z,1.60
2018-12-13T20:56:48.503Z,1.50
2018-12-13T20:59:17.677Z,1.60
2018-12-13T21:01:46.741Z,1.70
2018-12-13T21:04:16.787Z,1.50
2018-12-13T21:06:51.267Z,1.50
2018-12-13T21:09:20.353Z,1.70
2018-12-13T21:11:49.529Z,1.40
2018-12-13T21:14:18.608Z,1.60
2018-12-13T21:16:47.955Z,1.50
2018-12-13T21:19:17.010Z,1.70
2018-12-13T21:21:46.099Z,1.70
2018-12-13T21:24:15.319Z,1.60
2018-12-13T21:26:44.323Z,1.50
2018-12-13T21:29:13.465Z,1.30
2018-12-13T21:31:42.490Z,1.20
2018-12-13T21:34:11.869Z,1.40
2018-12-13T21:36:40.930Z,1.30
2018-12-13T21:39:10.034Z,1.40
2018-12-13T21:41:39.160Z,1.30
2018-12-13T21:44:08.498Z,1.30
2018-12-13T21:46:38.708Z,1.30
2018-12-13T21:49:09.195Z,1.20
2018-12-13T21:51:38.207Z,1.20
2018-12-13T21:54:07.324Z,1.20
2018-12-13T21:56:36.561Z,1.40
2018-12-13T21:59:06.708Z,1.20
2018-12-13T22:01:36.255Z,1.40
2018-12-13T22:04:05.957Z,1.40
2018-12-13T22:06:35.233Z,1.20
2018-12-13T22:09:07.102Z,0.80
2018-12-13T22:11:37.371Z,0.90
2018-12-13T22:14:12.821Z,0.90
2018-12-13T22:16:42.197Z,0.90
2018-12-13T22:19:11.249Z,1.00
2018-12-13T22:21:40.592Z,1.00
2018-12-13T22:24:09.761Z,0.90
2018-12-13T22:26:38.938Z,1.00
2018-12-13T22:29:07.988Z,1.20
2018-12-13T22:31:37.040Z,1.40
2018-12-13T22:34:06.122Z,1.20
2018-12-13T22:36:35.820Z,1.20
2018-12-13T22:39:06.622Z,1.20
2018-12-13T22:41:35.775Z,1.20
2018-12-13T22:44:05.045Z,1.20
2018-12-13T22:46:34.211Z,1.30
2018-12-13T22:49:03.481Z,1.30
2018-12-13T22:51:32.461Z,1.30
2018-12-13T22:54:01.744Z,1.20
2018-12-13T22:56:30.779Z,1.20
2018-12-13T22:58:59.804Z,1.20
2018-12-13T23:01:29.316Z,1.10
2018-12-13T23:03:58.648Z,0.90
2018-12-13T23:06:27.922Z,0.90
2018-12-13T23:08:56.987Z,0.80
2018-12-13T23:11:32.579Z,1.00
2018-12-13T23:13:57.408Z,1.00
2018-12-13T23:16:26.436Z,0.90
2018-12-13T23:18:55.674Z,1.00
2018-12-13T23:21:24.680Z,1.10
2018-12-13T23:23:53.745Z,1.10
2018-12-13T23:26:22.883Z,1.20
2018-12-13T23:28:51.936Z,1.00
2018-12-13T23:31:20.996Z,0.80
2018-12-13T23:33:50.252Z,0.80
2018-12-13T23:36:19.835Z,0.80
2018-12-13T23:38:49.865Z,0.70
2018-12-13T23:41:18.869Z,0.60
2018-12-13T23:43:48.070Z,0.70
2018-12-13T23:46:17.127Z,0.80
2018-12-13T23:48:46.107Z,0.60
2018-12-13T23:51:15.168Z,0.60
2018-12-13T23:53:44.261Z,0.60
2018-12-13T23:56:13.338Z,0.80
2018-12-13T23:58:42.481Z,0.80
